Passau, Germany

2:31 PM CEST on October 01, 2014 (GMT +0200)
Krennbauer | Change Station
CLOSE
Current Station
Personal Weather Station
Location: Schardenberg, OBERöSTERREICH
Elevation: 1693 ft
Nearby Weather Stations

Elev 1693 ft 48.53 °N, 13.49 °E | Updated 12 seconds ago

Light Rain
Light Rain
58.6 °F
Feels Like 58.6 °F
N
2.0
Wind Variable Wind from WSW
Gusts 4.0 mph

Today
High -- | Low -- °F
--% Chance of Precip.
Yesterday
High -- | Low -- °F
Precip. -- in
7:05 AM 6:45 PM
Waxing Crescent, 47% visible
Pressure 30.30 in
Visibility 4.3 miles
Clouds Few 400 ft
Mostly Cloudy 700 ft
Mostly Cloudy 6000 ft
Dew Point 58 °F
Humidity 98%
Rainfall 0.43 in
Snow Depth Not available.
UV 3 out of 12
Pollen Not available.
Air Quality Not available.
Flu Activity Not available.
METAR LOWL 011150Z 27005KT 240V300 7000 -RA FEW004 BKN007 BKN060 16/15 Q1026 TEMPO SCT007 BKN020

More Conditions Fewer Conditions

Pressure 30.30 in
Visibility 4.3 miles
Clouds Few 400 ft
Mostly Cloudy 700 ft
Mostly Cloudy 6000 ft
Dew Point 58 °F
Humidity 98%
Rainfall 0.43 in
Snow Depth Not available.
UV 3 out of 12
Pollen Not available.
Air Quality Not available.
Flu Activity Not available.
METAR LOWL 011150Z 27005KT 240V300 7000 -RA FEW004 BKN007 BKN060 16/15 Q1026 TEMPO SCT007 BKN020

More Conditions Fewer Conditions

10-Day Weather Forecast

Almanac

Astronomy

Oct. 01, 2014 Rise Set
Actual Time 7:05 AM CEST 6:45 PM CEST
Civil Twilight 6:33 AM CEST 7:16 PM CEST
Nautical Twilight 5:57 AM CEST 7:53 PM CEST
Astronomical Twilight 5:20 AM CEST 8:30 PM CEST
Moon 2:12 PM CEST 11:38 PM CEST
Length of Visible Light 12h 42m
Length of Day
11h 40m
Tomorrow will be 3m 31s shorter.
Waxing Crescent, 47% of the Moon is Illuminated
Today
Waxing Crescent
Oct 1
First Quarter
Oct 8
Full
Oct 15
Last Quarter
Oct 23
New

Yesterday's Extremes

Country Highs Country Lows

Community

WunderPhotos

Upload Photos

1,757,916 photos uploaded!

Nearby

Snow Depth

Not available.

Earthquake Activity

City Distance Mag. Time & Date
No recent earthquake activity has been reported nearby.
Minimum magnitude displayed is 2.5.

Coastal Water Temperatures

Place Temperature
No Stations Reporting

Nearby Weather Stations